Time;durP1;ratioP1;P1;durP2;ratioP2;P2;SDS_P1;SDS_P2;PMS_P1;PMS_P2;Temp;Humidity;BMP_temperature;BMP_pressure;BME280_temperature;BME280_humidity;BME280_pressure;Samples;Min_cycle;Max_cycle;Signal;HPM_P1;HPM_P2
2021/07/29 00:01:12;;;;;;;;;;;;;;;;;;3613668;39;811;-54
2021/07/29 00:03:38;;;;;;;;;;;;;;;;;;3612974;39;812;-53
2021/07/29 00:06:03;;;;;;;;;;;;;;;;;;3613395;39;840;-55
2021/07/29 00:08:28;;;;;;;;;;;;;;;;;;3613262;39;887;-54
2021/07/29 00:10:53;;;;;;;;;;;;;;;;;;3604008;39;829;-53
2021/07/29 00:13:18;;;;;;;;;;;;;;;;;;3613333;39;848;-54
2021/07/29 00:15:44;;;;;;;;;;;;;;;;;;3613620;39;717;-53
2021/07/29 00:20:34;;;;;;;;;;;;;;;;;;3613523;39;657;-54
2021/07/29 00:22:59;;;;;;;;;;;;;;;;;;3613618;39;821;-53
2021/07/29 00:25:24;;;;;;;;;;;;;;;;;;3613202;39;729;-54
2021/07/29 00:27:49;;;;;;;;;;;;;;;;;;3613245;39;1105;-54
2021/07/29 00:30:14;;;;;;;;;;;;;;;;;;3613147;39;916;-54
2021/07/29 00:32:39;;;;;;;;;;;;;;;;;;3612991;39;745;-53
2021/07/29 00:35:05;;;;;;;;;;;;;;;;;;3613232;39;721;-53
2021/07/29 00:37:30;;;;;;;;;;;;;;;;;;3613079;39;1911;-54
2021/07/29 00:39:55;;;;;;;;;;;;;;;;;;3612769;39;990;-54
2021/07/29 00:42:20;;;;;;;;;;;;;;;;;;3612916;39;830;-54
2021/07/29 00:44:45;;;;;;;;;;;;;;;;;;3613069;39;713;-54
2021/07/29 00:47:11;;;;;;;;;;;;;;;;;;3613032;39;704;-53
2021/07/29 00:49:36;;;;;;;;;;;;;;;;;;3612850;39;898;-53
2021/07/29 00:52:01;;;;;;;;;;;;;;;;;;3613085;39;927;-54
2021/07/29 00:54:29;;;;;;;;;;;;;;;;;;3612951;39;812;-54
2021/07/29 00:56:54;;;;;;;;;;;;;;;;;;3612821;39;1889;-53
2021/07/29 00:59:19;;;;;;;;;;;;;;;;;;3612901;39;743;-53
2021/07/29 01:01:45;;;;;;;;;;;;;;;;;;3612871;39;811;-53
2021/07/29 01:04:10;;;;;;;;;;;;;;;;;;3612732;39;935;-54
2021/07/29 01:06:35;;;;;;;;;;;;;;;;;;3612891;39;911;-53
2021/07/29 01:09:01;;;;;;;;;;;;;;;;;;3612729;39;808;-53
2021/07/29 01:11:26;;;;;;;;;;;;;;;;;;3613195;39;724;-54
2021/07/29 01:13:51;;;;;;;;;;;;;;;;;;3612661;39;948;-54
2021/07/29 01:16:16;;;;;;;;;;;;;;;;;;3614169;39;918;-54
2021/07/29 01:18:41;;;;;;;;;;;;;;;;;;3605209;39;1859;-54
2021/07/29 01:21:06;;;;;;;;;;;;;;;;;;3614526;39;931;-54
2021/07/29 01:23:31;;;;;;;;;;;;;;;;;;3614612;39;752;-56
2021/07/29 01:25:56;;;;;;;;;;;;;;;;;;3614462;39;990;-55
2021/07/29 01:28:23;;;;;;;;;;;;;;;;;;3614745;39;800;-54
2021/07/29 01:30:48;;;;;;;;;;;;;;;;;;3614319;39;748;-54
2021/07/29 01:33:13;;;;;;;;;;;;;;;;;;3614605;39;812;-56
2021/07/29 01:35:38;;;;;;;;;;;;;;;;;;3614316;39;828;-53
2021/07/29 01:38:03;;;;;;;;;;;;;;;;;;3614833;39;1866;-54
2021/07/29 01:40:28;;;;;;;;;;;;;;;;;;3614334;39;838;-53
2021/07/29 01:42:53;;;;;;;;;;;;;;;;;;3614050;39;855;-53
2021/07/29 01:45:18;;;;;;;;;;;;;;;;;;3604683;39;920;-54
2021/07/29 01:47:43;;;;;;;;;;;;;;;;;;3614597;39;812;-55
2021/07/29 01:50:09;;;;;;;;;;;;;;;;;;3613987;39;755;-53
2021/07/29 01:52:34;;;;;;;;;;;;;;;;;;3614203;39;688;-54
2021/07/29 01:55:00;;;;;;;;;;;;;;;;;;3614225;39;724;-54
2021/07/29 01:57:25;;;;;;;;;;;;;;;;;;3614159;39;1908;-55
2021/07/29 01:59:50;;;;;;;;;;;;;;;;;;3614198;39;805;-55
2021/07/29 02:02:15;;;;;;;;;;;;;;;;;;3614639;39;760;-53
2021/07/29 02:04:40;;;;;;;;;;;;;;;;;;3613996;39;736;-55
2021/07/29 02:07:05;;;;;;;;;;;;;;;;;;3614174;39;731;-53
2021/07/29 02:09:30;;;;;;;;;;;;;;;;;;3614103;39;717;-54
2021/07/29 02:11:55;;;;;;;;;;;;;;;;;;3604886;39;1238;-54
2021/07/29 02:14:21;;;;;;;;;;;;;;;;;;3614217;39;822;-55
2021/07/29 02:16:46;;;;;;;;;;;;;;;;;;3614168;39;788;-54
2021/07/29 02:19:12;;;;;;;;;;;;;;;;;;3614154;39;1882;-54
2021/07/29 02:21:37;;;;;;;;;;;;;;;;;;3613743;39;1079;-53
2021/07/29 02:24:02;;;;;;;;;;;;;;;;;;3614423;39;781;-54
2021/07/29 02:26:27;;;;;;;;;;;;;;;;;;3613762;39;716;-53
2021/07/29 02:28:52;;;;;;;;;;;;;;;;;;3614024;39;752;-54
2021/07/29 02:31:17;;;;;;;;;;;;;;;;;;3613932;39;849;-54
2021/07/29 02:33:42;;;;;;;;;;;;;;;;;;3614244;39;770;-54
2021/07/29 02:36:08;;;;;;;;;;;;;;;;;;3614006;39;899;-54
2021/07/29 02:38:33;;;;;;;;;;;;;;;;;;3614128;39;1868;-53
2021/07/29 02:40:58;;;;;;;;;;;;;;;;;;3614275;39;933;-53
2021/07/29 02:43:23;;;;;;;;;;;;;;;;;;3604949;39;827;-53
2021/07/29 02:45:48;;;;;;;;;;;;;;;;;;3613631;39;955;-55
2021/07/29 02:48:13;;;;;;;;;;;;;;;;;;3614137;39;714;-55
2021/07/29 02:50:38;;;;;;;;;;;;;;;;;;3613730;39;869;-54
2021/07/29 02:53:04;;;;;;;;;;;;;;;;;;3613738;39;744;-53
2021/07/29 02:55:29;;;;;;;;;;;;;;;;;;3613848;39;792;-53
2021/07/29 02:57:54;;;;;;;;;;;;;;;;;;3613686;39;1857;-54
2021/07/29 03:00:19;;;;;;;;;;;;;;;;;;3614014;39;768;-56
2021/07/29 03:02:44;;;;;;;;;;;;;;;;;;3614151;39;803;-55
2021/07/29 03:05:09;;;;;;;;;;;;;;;;;;3614078;39;868;-55
2021/07/29 03:07:34;;;;;;;;;;;;;;;;;;3614649;39;808;-54
2021/07/29 03:10:00;;;;;;;;;;;;;;;;;;3613760;39;784;-55
2021/07/29 03:12:25;;;;;;;;;;;;;;;;;;3613819;39;739;-53
2021/07/29 03:14:50;;;;;;;;;;;;;;;;;;3613869;39;701;-54
2021/07/29 16:08:17;;;;;;;;;;;;;;;;;;3592173;40;562;-61
2021/07/29 16:10:43;;;;;;;;;;;;;;;;;;3592505;40;909;-59
2021/07/29 16:13:08;;;;;;;;;;;;;;;;;;3592027;40;777;-59
2021/07/29 16:15:34;;;;;;;;;;;;;;;;;;3591929;40;711;-60
2021/07/29 16:17:59;;;;;;;;;;;;;;;;;;3592353;40;1923;-58
2021/07/29 16:20:24;;;;;;;;;;;;;;;;;;3592716;40;805;-61
2021/07/29 16:22:52;;;;;;;;;;;;;;;;;;3592621;40;1148;-60
2021/07/29 16:25:17;;;;;;;;;;;;;;;;;;3592322;40;732;-60
2021/07/29 16:27:42;;;;;;;;;;;;;;;;;;3592200;40;804;-58
2021/07/29 16:30:07;;;;;;;;;;;;;;;;;;3592325;40;956;-57
2021/07/29 16:32:32;;;;;;;;;;;;;;;;;;3592236;40;857;-57
2021/07/29 16:34:57;;;;;;;;;;;;;;;;;;3591736;40;785;-59
2021/07/29 16:37:22;;;;;;;;;;;;;;;;;;3591681;40;887;-60
2021/07/29 16:39:47;;;;;;;;;;;;;;;;;;3592434;40;1921;-58
2021/07/29 16:42:12;;;;;;;;;;;;;;;;;;3592776;40;833;-59
2021/07/29 16:44:37;;;;;;;;;;;;;;;;;;3592873;40;1034;-59
2021/07/29 16:47:03;;;;;;;;;;;;;;;;;;3591515;40;830;-59
2021/07/29 16:49:28;;;;;;;;;;;;;;;;;;3591914;40;763;-59
2021/07/29 16:51:53;;;;;;;;;;;;;;;;;;3591825;40;816;-57
2021/07/29 16:54:18;;;;;;;;;;;;;;;;;;3591829;40;756;-59
2021/07/29 16:56:43;;;;;;;;;;;;;;;;;;3591899;40;744;-60
2021/07/29 16:59:08;;;;;;;;;;;;;;;;;;3591622;40;1918;-58
2021/07/29 17:01:33;;;;;;;;;;;;;;;;;;3591948;40;817;-58
2021/07/29 17:03:59;;;;;;;;;;;;;;;;;;3591891;40;815;-58
2021/07/29 17:06:24;;;;;;;;;;;;;;;;;;3591605;40;820;-60
2021/07/29 17:08:49;;;;;;;;;;;;;;;;;;3591858;40;756;-59
2021/07/29 17:11:14;;;;;;;;;;;;;;;;;;3592348;40;881;-58
2021/07/29 17:13:39;;;;;;;;;;;;;;;;;;3591600;40;802;-58
2021/07/29 17:16:04;;;;;;;;;;;;;;;;;;3592236;40;790;-58
2021/07/29 17:18:29;;;;;;;;;;;;;;;;;;3592022;40;1877;-58
2021/07/29 17:20:55;;;;;;;;;;;;;;;;;;3591995;40;825;-59
2021/07/29 17:23:20;;;;;;;;;;;;;;;;;;3591318;40;1363;-56
2021/07/29 17:25:45;;;;;;;;;;;;;;;;;;3591778;40;744;-58
2021/07/29 17:28:10;;;;;;;;;;;;;;;;;;3591793;40;676;-58
2021/07/29 17:30:35;;;;;;;;;;;;;;;;;;3591484;40;818;-57
2021/07/29 17:33:00;;;;;;;;;;;;;;;;;;3591403;40;967;-58
2021/07/29 17:35:25;;;;;;;;;;;;;;;;;;3591548;40;807;-59
2021/07/29 17:37:51;;;;;;;;;;;;;;;;;;3591670;40;1927;-58
2021/07/29 17:40:16;;;;;;;;;;;;;;;;;;3591263;40;716;-58
2021/07/29 17:42:41;;;;;;;;;;;;;;;;;;3590991;40;704;-57
2021/07/29 17:45:06;;;;;;;;;;;;;;;;;;3590870;40;837;-57
2021/07/29 17:47:31;;;;;;;;;;;;;;;;;;3591056;40;606;-56
2021/07/29 17:49:56;;;;;;;;;;;;;;;;;;3590728;40;678;-56
2021/07/29 17:52:21;;;;;;;;;;;;;;;;;;3591026;40;739;-57
2021/07/29 17:54:46;;;;;;;;;;;;;;;;;;3590896;40;704;-56
2021/07/29 17:57:12;;;;;;;;;;;;;;;;;;3591152;40;780;-56
2021/07/29 17:59:37;;;;;;;;;;;;;;;;;;3592390;40;1859;-56
2021/07/29 18:02:02;;;;;;;;;;;;;;;;;;3592304;40;760;-56
2021/07/29 18:04:29;;;;;;;;;;;;;;;;;;3592488;40;794;-56
2021/07/29 18:06:54;;;;;;;;;;;;;;;;;;3592784;40;849;-56
2021/07/29 18:09:19;;;;;;;;;;;;;;;;;;3592248;40;845;-55
2021/07/29 18:11:45;;;;;;;;;;;;;;;;;;3592036;40;824;-56
2021/07/29 18:14:10;;;;;;;;;;;;;;;;;;3592591;40;817;-56
2021/07/29 18:16:35;;;;;;;;;;;;;;;;;;3591985;40;789;-56
2021/07/29 18:19:00;;;;;;;;;;;;;;;;;;3592167;40;1914;-56
2021/07/29 18:21:25;;;;;;;;;;;;;;;;;;3591831;40;1198;-56
2021/07/29 18:23:50;;;;;;;;;;;;;;;;;;3592590;40;804;-55
2021/07/29 18:26:15;;;;;;;;;;;;;;;;;;3591900;40;789;-56
2021/07/29 18:28:40;;;;;;;;;;;;;;;;;;3593115;40;720;-56
2021/07/29 18:31:06;;;;;;;;;;;;;;;;;;3592208;40;800;-54
2021/07/29 18:33:31;;;;;;;;;;;;;;;;;;3592593;40;934;-56
2021/07/29 18:36:00;;;;;;;;;;;;;;;;;;3592571;40;836;-57
2021/07/29 18:38:25;;;;;;;;;;;;;;;;;;3592304;40;1951;-56
2021/07/29 18:40:50;;;;;;;;;;;;;;;;;;3592744;40;773;-55
2021/07/29 18:43:15;;;;;;;;;;;;;;;;;;3592366;40;732;-54
2021/07/29 18:45:40;;;;;;;;;;;;;;;;;;3592463;40;858;-55
2021/07/29 18:48:05;;;;;;;;;;;;;;;;;;3592334;40;825;-57
2021/07/29 18:50:30;;;;;;;;;;;;;;;;;;3592529;40;832;-57
2021/07/29 18:52:56;;;;;;;;;;;;;;;;;;3592162;40;763;-57
2021/07/29 18:55:21;;;;;;;;;;;;;;;;;;3592353;40;828;-56
2021/07/29 18:57:46;;;;;;;;;;;;;;;;;;3592539;40;2004;-58
2021/07/29 19:00:11;;;;;;;;;;;;;;;;;;3592229;40;885;-58
2021/07/29 19:02:37;;;;;;;;;;;;;;;;;;3592774;40;964;-54
2021/07/29 19:05:02;;;;;;;;;;;;;;;;;;3592196;40;785;-57
2021/07/29 19:07:27;;;;;;;;;;;;;;;;;;3592006;40;701;-57
2021/07/29 19:09:52;;;;;;;;;;;;;;;;;;3592028;40;884;-57
2021/07/29 19:12:17;;;;;;;;;;;;;;;;;;3592125;40;920;-55
2021/07/29 19:14:47;;;;;;;;;;;;;;;;;;3592179;40;775;-57
2021/07/29 19:17:12;;;;;;;;;;;;;;;;;;3592339;40;799;-56
2021/07/29 19:19:38;;;;;;;;;;;;;;;;;;3592449;40;1895;-57
2021/07/29 19:22:03;;;;;;;;;;;;;;;;;;3592107;40;1069;-57
2021/07/29 19:24:28;;;;;;;;;;;;;;;;;;3591909;40;723;-57
2021/07/29 19:26:53;;;;;;;;;;;;;;;;;;3591919;40;736;-56
2021/07/29 19:29:18;;;;;;;;;;;;;;;;;;3592411;40;825;-55
2021/07/29 19:31:43;;;;;;;;;;;;;;;;;;3591954;40;720;-55
2021/07/29 19:34:08;;;;;;;;;;;;;;;;;;3591931;40;833;-54
2021/07/29 19:36:35;;;;;;;;;;;;;;;;;;3591870;40;824;-57
2021/07/29 19:39:00;;;;;;;;;;;;;;;;;;3591749;40;1857;-54
2021/07/29 19:41:25;;;;;;;;;;;;;;;;;;3591924;40;850;-57
2021/07/29 19:43:50;;;;;;;;;;;;;;;;;;3591836;40;735;-56
2021/07/29 19:46:15;;;;;;;;;;;;;;;;;;3591881;40;712;-53
2021/07/29 19:48:40;;;;;;;;;;;;;;;;;;3591951;40;825;-56
2021/07/29 19:51:05;;;;;;;;;;;;;;;;;;3591759;40;803;-56
2021/07/29 19:53:30;;;;;;;;;;;;;;;;;;3592041;40;837;-57
2021/07/29 19:55:56;;;;;;;;;;;;;;;;;;3592509;40;924;-56
2021/07/29 19:58:21;;;;;;;;;;;;;;;;;;3591948;40;1867;-58
2021/07/29 20:00:46;;;;;;;;;;;;;;;;;;3591967;40;700;-55
2021/07/29 20:03:11;;;;;;;;;;;;;;;;;;3591753;40;853;-57
2021/07/29 20:05:36;;;;;;;;;;;;;;;;;;3591854;40;1398;-57
2021/07/29 20:08:01;;;;;;;;;;;;;;;;;;3591782;40;817;-57
2021/07/29 20:10:26;;;;;;;;;;;;;;;;;;3591891;40;844;-57
2021/07/29 20:12:51;;;;;;;;;;;;;;;;;;3592000;40;705;-56
2021/07/29 20:15:17;;;;;;;;;;;;;;;;;;3591790;40;832;-56
2021/07/29 20:17:42;;;;;;;;;;;;;;;;;;3591707;40;728;-57
2021/07/29 20:20:09;;;;;;;;;;;;;;;;;;3591871;40;1862;-57
2021/07/29 20:22:34;;;;;;;;;;;;;;;;;;3591588;40;1053;-57
2021/07/29 20:24:59;;;;;;;;;;;;;;;;;;3591838;40;759;-57
2021/07/29 20:27:24;;;;;;;;;;;;;;;;;;3591739;40;713;-58
2021/07/29 20:29:49;;;;;;;;;;;;;;;;;;3591748;40;803;-58
2021/07/29 20:32:14;;;;;;;;;;;;;;;;;;3591664;40;732;-56
2021/07/29 20:34:39;;;;;;;;;;;;;;;;;;3591775;40;752;-57
2021/07/29 20:37:05;;;;;;;;;;;;;;;;;;3592125;40;808;-57
2021/07/29 20:39:30;;;;;;;;;;;;;;;;;;3591778;40;1914;-56
2021/07/29 20:41:56;;;;;;;;;;;;;;;;;;3591675;40;954;-58
2021/07/29 20:44:21;;;;;;;;;;;;;;;;;;3592002;40;785;-57
2021/07/29 20:46:46;;;;;;;;;;;;;;;;;;3592621;40;951;-57
2021/07/29 20:49:11;;;;;;;;;;;;;;;;;;3592968;40;758;-57
2021/07/29 20:51:37;;;;;;;;;;;;;;;;;;3592496;40;937;-58
2021/07/29 20:54:02;;;;;;;;;;;;;;;;;;3591983;40;728;-58
2021/07/29 20:56:27;;;;;;;;;;;;;;;;;;3591939;40;799;-58
2021/07/29 20:58:52;;;;;;;;;;;;;;;;;;3591711;40;1925;-56
2021/07/29 21:01:17;;;;;;;;;;;;;;;;;;3591586;40;708;-57
2021/07/29 21:03:42;;;;;;;;;;;;;;;;;;3591601;40;728;-54
2021/07/29 21:06:07;;;;;;;;;;;;;;;;;;3591398;40;752;-56
2021/07/29 21:08:33;;;;;;;;;;;;;;;;;;3591773;40;863;-58
2021/07/29 21:10:58;;;;;;;;;;;;;;;;;;3591779;40;823;-56
2021/07/29 21:13:27;;;;;;;;;;;;;;;;;;3591506;40;723;-56
2021/07/29 21:15:52;;;;;;;;;;;;;;;;;;3591371;40;789;-56
2021/07/29 21:18:17;;;;;;;;;;;;;;;;;;3591478;40;1889;-56
2021/07/29 21:20:47;;;;;;;;;;;;;;;;;;3591180;40;778;-56
2021/07/29 21:23:12;;;;;;;;;;;;;;;;;;3590990;40;1211;-54
2021/07/29 21:25:37;;;;;;;;;;;;;;;;;;3591202;40;825;-57
2021/07/29 21:28:03;;;;;;;;;;;;;;;;;;3590918;40;740;-56
2021/07/29 21:30:28;;;;;;;;;;;;;;;;;;3591179;40;769;-57
2021/07/29 21:32:53;;;;;;;;;;;;;;;;;;3592010;40;716;-55
2021/07/29 21:35:19;;;;;;;;;;;;;;;;;;3592631;40;905;-56
2021/07/29 21:37:44;;;;;;;;;;;;;;;;;;3592590;40;769;-57
2021/07/29 21:40:09;;;;;;;;;;;;;;;;;;3592536;40;1871;-56
2021/07/29 21:42:34;;;;;;;;;;;;;;;;;;3592452;40;729;-56
2021/07/29 21:44:59;;;;;;;;;;;;;;;;;;3593115;40;904;-56
2021/07/29 21:47:24;;;;;;;;;;;;;;;;;;3592957;40;781;-56
2021/07/29 21:49:49;;;;;;;;;;;;;;;;;;3592729;40;816;-55
2021/07/29 21:52:20;;;;;;;;;;;;;;;;;;3592881;40;782;-55
2021/07/29 21:54:45;;;;;;;;;;;;;;;;;;3593091;40;783;-54
2021/07/29 21:57:11;;;;;;;;;;;;;;;;;;3592947;40;834;-57
2021/07/29 21:59:36;;;;;;;;;;;;;;;;;;3592698;40;1926;-57
2021/07/29 22:02:01;;;;;;;;;;;;;;;;;;3592413;40;721;-57
2021/07/29 22:04:26;;;;;;;;;;;;;;;;;;3592679;40;856;-56
2021/07/29 22:06:51;;;;;;;;;;;;;;;;;;3592614;40;849;-57
2021/07/29 22:09:16;;;;;;;;;;;;;;;;;;3592350;40;747;-58
2021/07/29 22:11:41;;;;;;;;;;;;;;;;;;3592768;40;873;-57
2021/07/29 22:14:06;;;;;;;;;;;;;;;;;;3592769;40;813;-57
2021/07/29 22:19:15;;;;;;;;;;;;;;;;;;3592619;40;1933;-55
2021/07/29 22:21:40;;;;;;;;;;;;;;;;;;3592198;40;1092;-57
2021/07/29 22:24:05;;;;;;;;;;;;;;;;;;3592562;40;808;-56
2021/07/29 22:26:30;;;;;;;;;;;;;;;;;;3592596;40;878;-56
2021/07/29 22:28:56;;;;;;;;;;;;;;;;;;3592335;40;717;-56
2021/07/29 22:31:21;;;;;;;;;;;;;;;;;;3592312;40;728;-58
2021/07/29 22:33:46;;;;;;;;;;;;;;;;;;3592015;40;840;-57
2021/07/29 22:36:11;;;;;;;;;;;;;;;;;;3592737;40;775;-56
2021/07/29 22:38:37;;;;;;;;;;;;;;;;;;3592465;40;1913;-56
2021/07/29 22:41:02;;;;;;;;;;;;;;;;;;3592424;40;728;-55
2021/07/29 22:43:27;;;;;;;;;;;;;;;;;;3591725;40;824;-55
2021/07/29 22:45:53;;;;;;;;;;;;;;;;;;3592281;40;849;-56
2021/07/29 22:48:18;;;;;;;;;;;;;;;;;;3592094;40;821;-55
2021/07/29 22:50:43;;;;;;;;;;;;;;;;;;3592202;40;809;-56
2021/07/29 22:53:08;;;;;;;;;;;;;;;;;;3592210;40;837;-54
2021/07/29 22:55:33;;;;;;;;;;;;;;;;;;3592057;40;716;-55
2021/07/29 22:57:58;;;;;;;;;;;;;;;;;;3592143;40;1862;-56
2021/07/29 23:00:23;;;;;;;;;;;;;;;;;;3592534;40;756;-55
2021/07/29 23:02:49;;;;;;;;;;;;;;;;;;3591957;40;725;-55
2021/07/29 23:05:14;;;;;;;;;;;;;;;;;;3592174;40;734;-55
2021/07/29 23:07:39;;;;;;;;;;;;;;;;;;3592258;40;975;-56
2021/07/29 23:10:04;;;;;;;;;;;;;;;;;;3591907;40;853;-55
2021/07/29 23:12:29;;;;;;;;;;;;;;;;;;3592308;40;777;-55
2021/07/29 23:14:54;;;;;;;;;;;;;;;;;;3591912;40;855;-55
2021/07/29 23:17:19;;;;;;;;;;;;;;;;;;3591640;40;832;-55
2021/07/29 23:19:45;;;;;;;;;;;;;;;;;;3592166;40;1910;-55
2021/07/29 23:22:11;;;;;;;;;;;;;;;;;;3591717;40;1157;-55
2021/07/29 23:24:52;;;;;;;;;;;;;;;;;;3591841;40;761;-55
2021/07/29 23:30:02;;;;;;;;;;;;;;;;;;3591869;40;578;-55
2021/07/29 23:32:27;;;;;;;;;;;;;;;;;;3591809;40;836;-56
2021/07/29 23:34:52;;;;;;;;;;;;;;;;;;3592406;40;882;-55
2021/07/29 23:37:17;;;;;;;;;;;;;;;;;;3591741;40;856;-55
2021/07/29 23:39:42;;;;;;;;;;;;;;;;;;3591894;40;1924;-55
2021/07/29 23:42:07;;;;;;;;;;;;;;;;;;3591945;40;845;-55
2021/07/29 23:44:32;;;;;;;;;;;;;;;;;;3591864;40;724;-54
2021/07/29 23:46:57;;;;;;;;;;;;;;;;;;3592336;40;784;-55
2021/07/29 23:49:22;;;;;;;;;;;;;;;;;;3591639;40;775;-55
2021/07/29 23:51:50;;;;;;;;;;;;;;;;;;3591869;40;774;-55
2021/07/29 23:54:15;;;;;;;;;;;;;;;;;;3592117;40;818;-55
2021/07/29 23:56:42;;;;;;;;;;;;;;;;;;3591157;40;712;-55
2021/07/29 23:59:07;;;;;;;;;;;;;;;;;;3592104;40;1866;-55
